Time;durP1;ratioP1;P1;durP2;ratioP2;P2;SDS_P1;SDS_P2;PMS_P1;PMS_P2;Temp;Humidity;BMP_temperature;BMP_pressure;BME280_temperature;BME280_humidity;BME280_pressure;Samples;Min_cycle;Max_cycle;Signal;HPM_P1;HPM_P2
2021/08/01 00:00:16;;;;;;;12.90;7.18;;;18.10;99.90;;;;;;4921683;29;20195;-86
2021/08/01 00:02:42;;;;;;;13.68;6.93;;;18.10;99.90;;;;;;4905688;29;20188;-86
2021/08/01 00:05:09;;;;;;;7.72;6.15;;;18.10;99.90;;;;;;4921554;29;20254;-87
2021/08/01 00:07:36;;;;;;;16.00;6.78;;;18.00;99.90;;;;;;4921247;29;20665;-86
2021/08/01 00:10:05;;;;;;;10.65;6.63;;;18.00;99.90;;;;;;4921214;29;20266;-86
2021/08/01 00:12:31;;;;;;;10.60;6.72;;;18.10;99.90;;;;;;4920776;29;20261;-88
2021/08/01 00:14:57;;;;;;;9.55;6.35;;;18.00;99.90;;;;;;4921805;29;20266;-86
2021/08/01 00:17:23;;;;;;;11.32;6.25;;;18.00;99.90;;;;;;4921006;29;20251;-86
2021/08/01 00:19:49;;;;;;;10.27;6.63;;;;;;;;;;4905674;29;20615;-86
2021/08/01 00:22:15;;;;;;;7.78;6.18;;;17.90;99.90;;;;;;4921407;29;20184;-86
2021/08/01 00:24:41;;;;;;;8.48;6.18;;;17.90;99.90;;;;;;4889878;29;20194;-87
2021/08/01 00:27:07;;;;;;;11.00;6.22;;;17.90;99.90;;;;;;4938430;29;20207;-86
2021/08/01 00:29:32;;;;;;;9.70;6.60;;;18.00;99.90;;;;;;4905379;29;20625;-88
2021/08/01 00:32:03;;;;;;;15.57;7.18;;;18.00;99.90;;;;;;4905549;29;20693;-86
2021/08/01 00:34:29;;;;;;;13.38;7.00;;;18.10;99.90;;;;;;4921289;29;20200;-87
2021/08/01 00:36:55;;;;;;;12.40;7.30;;;;;;;;;;4937945;29;20183;-87
2021/08/01 00:39:20;;;;;;;14.05;6.53;;;18.30;99.90;;;;;;4920952;29;20196;-87
2021/08/01 00:41:46;;;;;;;15.18;6.93;;;;;;;;;;4920825;29;20186;-87
2021/08/01 00:44:12;;;;;;;9.82;6.65;;;18.30;99.90;;;;;;4905509;29;20187;-86
2021/08/01 00:46:41;;;;;;;10.02;6.22;;;18.40;99.90;;;;;;4905101;29;20661;-86
2021/08/01 00:49:07;;;;;;;11.68;7.32;;;18.40;99.90;;;;;;4938518;29;20268;-86
2021/08/01 00:51:33;;;;;;;12.40;7.03;;;18.40;99.90;;;;;;4920808;29;20310;-86
2021/08/01 00:54:03;;;;;;;12.48;6.80;;;18.30;99.90;;;;;;4920484;29;20191;-86
2021/08/01 00:56:32;;;;;;;12.30;6.90;;;18.30;99.90;;;;;;4920870;29;20187;-86
2021/08/01 00:58:58;;;;;;;12.35;6.47;;;18.20;99.90;;;;;;4920318;29;20235;-86
2021/08/01 01:01:34;;;;;;;17.70;7.82;;;18.30;99.90;;;;;;4889370;29;20279;-86
2021/08/01 01:04:30;;;;;;;11.73;6.65;;;18.20;99.90;;;;;;4920313;29;20238;-86
2021/08/01 01:07:05;;;;;;;14.10;7.38;;;18.30;99.90;;;;;;4929786;29;20196;-87
2021/08/01 01:10:04;;;;;;;11.55;6.70;;;18.40;99.90;;;;;;4920798;29;20183;-87
2021/08/01 01:12:37;;;;;;;17.90;7.38;;;18.40;99.90;;;;;;4937533;29;20207;-88
2021/08/01 01:15:11;;;;;;;16.85;7.93;;;18.40;99.90;;;;;;4937368;29;20207;-87
2021/08/01 01:17:39;;;;;;;12.98;7.03;;;18.40;99.90;;;;;;4920499;29;20188;-87
2021/08/01 01:20:33;;;;;;;13.43;7.18;;;18.40;99.90;;;;;;4936789;29;20176;-87
2021/08/01 01:23:36;;;;;;;12.15;6.68;;;18.60;99.90;;;;;;4852899;29;20322;-87
2021/08/01 01:26:09;;;;;;;20.70;7.38;;;18.40;99.90;;;;;;4919821;29;20190;-87
2021/08/01 01:28:56;;;;;;;14.45;7.70;;;18.30;99.90;;;;;;4936625;29;20172;-86
2021/08/01 01:32:01;;;;;;;11.02;6.40;;;18.30;99.90;;;;;;4919774;29;20210;-87
2021/08/01 01:35:03;;;;;;;15.45;7.20;;;18.40;99.90;;;;;;4887891;29;20192;-87
2021/08/01 01:37:30;;;;;;;13.88;8.13;;;18.40;99.90;;;;;;4920213;29;20267;-87
2021/08/01 01:39:58;;;;;;;14.55;7.63;;;18.40;99.90;;;;;;4904268;29;20646;-86
2021/08/01 01:42:25;;;;;;;12.93;6.50;;;18.40;99.90;;;;;;4920110;29;20335;-86
2021/08/01 01:44:52;;;;;;;17.77;8.27;;;18.40;99.90;;;;;;4936689;29;20246;-86
2021/08/01 01:47:19;;;;;;;26.70;7.63;;;18.40;99.90;;;;;;4937210;29;20180;-86
2021/08/01 01:49:45;;;;;;;13.48;7.07;;;18.30;99.90;;;;;;4903739;29;20184;-87
2021/08/01 01:52:13;;;;;;;13.88;6.85;;;18.30;99.90;;;;;;4919763;29;20223;-86
2021/08/01 01:54:39;;;;;;;11.93;7.38;;;18.30;99.90;;;;;;4936903;29;20212;-86
2021/08/01 01:57:06;;;;;;;16.13;8.13;;;18.40;99.90;;;;;;4919497;29;20521;-87
2021/08/01 01:59:32;;;;;;;12.23;7.07;;;18.50;99.90;;;;;;4936763;29;20180;-86
2021/08/01 02:01:57;;;;;;;15.80;7.55;;;18.50;99.90;;;;;;4919328;29;20184;-86
2021/08/01 02:04:23;;;;;;;17.92;7.30;;;18.50;99.90;;;;;;4919621;29;20235;-86
2021/08/01 02:06:49;;;;;;;14.32;7.68;;;18.40;99.90;;;;;;4903626;29;20186;-87
2021/08/01 02:09:30;;;;;;;16.58;7.38;;;18.40;99.90;;;;;;4903671;29;20210;-87
2021/08/01 02:12:24;;;;;;;15.23;7.38;;;18.40;99.90;;;;;;4936375;29;20203;-86
2021/08/01 02:15:11;;;;;;;12.13;6.97;;;18.50;99.90;;;;;;4919140;29;20351;-86
2021/08/01 02:17:55;;;;;;;16.52;7.65;;;18.50;99.90;;;;;;4936399;29;20246;-87
2021/08/01 02:20:44;;;;;;;16.90;7.80;;;18.50;99.90;;;;;;4919317;29;20183;-87
2021/08/01 02:23:15;;;;;;;16.95;7.68;;;18.50;99.90;;;;;;4922041;29;20168;-87
2021/08/01 02:25:42;;;;;;;11.82;7.35;;;18.50;99.90;;;;;;4919437;29;20175;-87
2021/08/01 02:28:09;;;;;;;14.70;7.97;;;18.50;99.90;;;;;;4935555;29;20222;-86
2021/08/01 02:30:36;;;;;;;14.82;7.93;;;18.50;99.90;;;;;;4935986;29;20184;-88
2021/08/01 02:33:03;;;;;;;17.02;6.97;;;18.40;99.90;;;;;;4918826;29;20250;-86
2021/08/01 02:35:31;;;;;;;9.13;7.50;;;18.40;99.90;;;;;;4903729;29;20716;-86
2021/08/01 02:37:58;;;;;;;14.50;7.38;;;18.40;99.90;;;;;;4918875;29;20625;-86
2021/08/01 02:40:35;;;;;;;13.10;7.80;;;18.30;99.90;;;;;;4936322;29;20180;-86
2021/08/01 02:43:05;;;;;;;15.68;8.02;;;18.30;99.90;;;;;;4918775;29;20183;-87
2021/08/01 02:45:36;;;;;;;11.23;8.35;;;18.70;99.90;;;;;;4918964;29;20195;-87
2021/08/01 02:48:04;;;;;;;14.65;8.07;;;18.30;99.90;;;;;;4918610;29;20183;-87
2021/08/01 02:50:32;;;;;;;14.13;7.97;;;18.30;99.90;;;;;;4903383;29;20184;-87
2021/08/01 02:53:03;;;;;;;18.38;7.75;;;18.20;99.90;;;;;;4918567;29;20207;-87
2021/08/01 02:55:31;;;;;;;16.45;7.55;;;18.20;99.90;;;;;;4919268;29;20180;-86
2021/08/01 02:57:58;;;;;;;18.58;8.18;;;18.20;99.90;;;;;;4918555;29;20180;-87
2021/08/01 03:00:24;;;;;;;12.25;8.20;;;18.20;99.90;;;;;;4903140;29;20330;-87
2021/08/01 03:02:51;;;;;;;16.02;8.60;;;18.10;99.90;;;;;;4936106;29;20188;-86
2021/08/01 03:05:18;;;;;;;12.02;7.80;;;18.10;99.90;;;;;;4902893;29;20258;-86
2021/08/01 03:07:45;;;;;;;19.17;8.65;;;18.10;99.90;;;;;;4903243;29;20199;-87
2021/08/01 03:10:12;;;;;;;16.38;8.30;;;18.10;99.90;;;;;;4918496;29;20586;-86
2021/08/01 03:12:43;;;;;;;12.50;8.07;;;18.10;99.90;;;;;;4935711;29;20680;-87
2021/08/01 03:15:09;;;;;;;12.20;7.57;;;18.10;99.90;;;;;;4918505;29;20183;-87
2021/08/01 03:17:34;;;;;;;15.32;8.02;;;18.00;99.90;;;;;;4903210;29;20188;-87
2021/08/01 03:20:01;;;;;;;16.42;7.78;;;;;;;;;;4902761;29;20187;-87
2021/08/01 03:22:26;;;;;;;19.98;8.07;;;18.20;99.90;;;;;;4919143;29;20184;-87
2021/08/01 03:24:52;;;;;;;18.92;7.88;;;18.10;99.90;;;;;;4935538;29;20611;-86
2021/08/01 03:27:18;;;;;;;14.88;7.80;;;18.10;99.90;;;;;;4902820;29;20544;-86
2021/08/01 03:29:44;;;;;;;17.83;7.65;;;;;;;;;;4918560;29;20188;-87
2021/08/01 03:32:10;;;;;;;10.50;7.25;;;18.10;99.90;;;;;;4918251;29;20298;-87
2021/08/01 03:34:35;;;;;;;11.38;7.53;;;18.10;99.90;;;;;;4902901;29;20283;-87
2021/08/01 03:37:01;;;;;;;22.58;8.25;;;18.20;99.90;;;;;;4902614;29;20633;-88
2021/08/01 03:39:33;;;;;;;18.52;8.95;;;;;;;;;;4902927;29;20617;-85
2021/08/01 03:41:59;;;;;;;19.15;8.75;;;18.10;99.90;;;;;;4918479;29;20230;-86
2021/08/01 03:44:25;;;;;;;14.85;8.40;;;18.00;99.90;;;;;;4902843;29;20655;-86
2021/08/01 03:46:51;;;;;;;18.60;8.40;;;19.40;99.90;;;;;;4918328;29;20263;-86
2021/08/01 03:49:16;;;;;;;16.83;7.78;;;18.10;99.90;;;;;;4918424;29;20617;-86
2021/08/01 03:51:42;;;;;;;18.75;8.52;;;18.10;99.90;;;;;;4936880;29;20338;-86
2021/08/01 03:54:07;;;;;;;13.10;7.50;;;18.10;99.90;;;;;;4921432;29;20192;-86
2021/08/01 03:56:43;;;;;;;16.52;8.00;;;18.40;99.90;;;;;;4921903;29;20180;-85
2021/08/01 03:59:09;;;;;;;13.93;8.27;;;18.40;99.90;;;;;;4912594;29;20183;-83
2021/08/01 04:01:35;;;;;;;11.18;7.60;;;18.50;99.90;;;;;;4930410;28;20196;-84
2021/08/01 04:04:01;;;;;;;18.15;7.43;;;18.50;99.90;;;;;;4933478;28;20242;-88
2021/08/01 04:06:26;;;;;;;14.50;7.47;;;18.50;99.90;;;;;;4947773;29;20175;-85
2021/08/01 04:08:54;;;;;;;13.05;7.07;;;18.60;99.90;;;;;;4928537;29;20186;-87
2021/08/01 04:11:20;;;;;;;12.68;7.47;;;18.70;99.90;;;;;;4930435;29;20203;-88
2021/08/01 04:13:46;;;;;;;18.50;8.02;;;16.90;99.90;;;;;;4963252;29;20233;-87
2021/08/01 04:16:11;;;;;;;20.35;8.93;;;18.50;99.90;;;;;;4945630;29;20197;-87
2021/08/01 04:18:37;;;;;;;21.40;7.25;;;;;;;;;;4941746;29;20179;-89
2021/08/01 04:21:10;;;;;;;12.30;8.27;;;18.40;99.90;;;;;;4939899;29;20648;-89
2021/08/01 04:23:37;;;;;;;19.98;9.13;;;18.40;99.90;;;;;;4940423;29;20190;-88
2021/08/01 04:26:03;;;;;;;20.13;8.20;;;18.30;99.90;;;;;;4940419;29;20237;-89
2021/08/01 04:28:29;;;;;;;13.80;7.88;;;18.50;99.90;;;;;;4958674;29;20209;-88
2021/08/01 04:30:55;;;;;;;11.25;7.93;;;;;;;;;;4925354;29;20267;-88
2021/08/01 04:33:21;;;;;;;18.83;8.63;;;;;;;;;;4924255;29;20200;-88
2021/08/01 04:35:47;;;;;;;13.80;8.55;;;18.90;99.90;;;;;;4940449;29;20180;-88
2021/08/01 04:38:13;;;;;;;14.80;8.07;;;;;;;;;;4923749;29;20533;-89
2021/08/01 04:40:39;;;;;;;18.05;9.13;;;19.00;99.90;;;;;;4924535;29;20205;-88
2021/08/01 04:43:04;;;;;;;15.50;7.60;;;18.90;99.90;;;;;;4940032;29;20584;-89
2021/08/01 04:45:30;;;;;;;15.63;7.55;;;19.10;99.90;;;;;;4940404;29;20636;-88
2021/08/01 04:47:56;;;;;;;16.45;8.00;;;;;;;;;;4924280;29;20585;-88
2021/08/01 04:50:22;;;;;;;17.33;8.77;;;19.00;99.90;;;;;;4939905;29;20175;-88
2021/08/01 04:52:51;;;;;;;18.10;7.82;;;18.90;99.90;;;;;;4957078;29;20523;-88
2021/08/01 04:55:18;;;;;;;12.70;7.60;;;18.90;99.90;;;;;;4923836;29;20191;-88
2021/08/01 04:57:44;;;;;;;13.25;7.88;;;18.90;99.90;;;;;;4924095;29;20629;-88
2021/08/01 05:00:10;;;;;;;17.00;7.30;;;18.90;99.90;;;;;;4923782;29;20225;-88
2021/08/01 05:02:36;;;;;;;13.20;8.45;;;19.00;99.90;;;;;;4939251;29;20556;-88
2021/08/01 05:05:05;;;;;;;17.90;8.70;;;19.00;99.90;;;;;;4920350;29;20240;-88
2021/08/01 05:07:33;;;;;;;15.98;8.40;;;19.00;99.90;;;;;;4935828;29;20183;-88
2021/08/01 05:10:00;;;;;;;17.88;8.63;;;19.10;99.90;;;;;;4936306;29;20214;-89
2021/08/01 05:12:27;;;;;;;19.20;9.02;;;19.10;99.90;;;;;;4920078;29;20230;-89
2021/08/01 05:14:55;;;;;;;12.18;9.15;;;19.30;99.90;;;;;;4936724;29;20200;-88
2021/08/01 05:17:21;;;;;;;18.52;8.18;;;19.20;99.90;;;;;;4935530;29;20188;-90
2021/08/01 05:19:47;;;;;;;10.38;7.90;;;19.40;99.90;;;;;;4935579;29;20254;-90
2021/08/01 05:22:13;;;;;;;17.92;8.55;;;;;;;;;;4919812;29;20274;-90
2021/08/01 05:24:41;;;;;;;17.38;9.02;;;19.50;99.90;;;;;;4935882;29;20179;-89
2021/08/01 05:27:08;;;;;;;15.77;8.50;;;19.60;99.90;;;;;;4935883;29;20180;-90
2021/08/01 05:29:34;;;;;;;15.30;9.65;;;19.70;99.90;;;;;;4935541;29;20176;-90
2021/08/01 05:32:02;;;;;;;17.77;8.15;;;20.00;99.90;;;;;;4935646;29;20274;-89
2021/08/01 05:34:31;;;;;;;19.90;9.40;;;19.40;99.90;;;;;;4935717;29;20188;-90
2021/08/01 05:36:57;;;;;;;16.45;8.70;;;19.90;99.90;;;;;;4935962;29;20183;-91
2021/08/01 05:39:23;;;;;;;17.48;9.27;;;20.20;99.90;;;;;;4919728;29;20526;-90
2021/08/01 05:41:52;;;;;;;17.23;9.45;;;20.00;99.90;;;;;;4938222;29;20182;-90
2021/08/01 05:44:18;;;;;;;13.18;8.80;;;20.20;99.90;;;;;;4920388;29;20247;-90
2021/08/01 05:46:44;;;;;;;12.73;8.55;;;;;;;;;;4920195;29;20203;-91
2021/08/01 05:49:10;;;;;;;16.83;9.05;;;20.10;99.90;;;;;;4934979;29;20188;-94
2021/08/01 05:51:39;;;;;;;13.85;8.48;;;21.20;99.90;;;;;;4936298;29;20213;-95
2021/08/01 05:54:08;;;;;;;16.40;8.07;;;20.30;99.90;;;;;;4935451;29;20187;-93
2021/08/01 05:57:16;;;;;;;;;;;;;;;;;;;;;
2021/08/01 05:59:58;;;;;;;21.25;9.13;;;20.30;99.90;;;;;;4937613;29;20190;-95
2021/08/01 06:02:24;;;;;;;13.30;7.93;;;22.50;99.90;;;;;;4927135;29;20219;-93
2021/08/01 06:04:51;;;;;;;17.75;8.68;;;20.40;99.90;;;;;;4925413;29;20247;-91
2021/08/01 06:07:34;;;;;;;15.50;9.82;;;21.10;99.90;;;;;;4931390;29;20190;-92
2021/08/01 06:10:00;;;;;;;17.77;8.98;;;20.50;99.90;;;;;;4936674;29;20219;-91
2021/08/01 06:12:26;;;;;;;19.23;9.07;;;20.70;99.90;;;;;;4944806;29;20215;-91
2021/08/01 06:14:52;;;;;;;11.75;8.57;;;;;;;;;;4946240;28;20187;-91
2021/08/01 06:17:18;;;;;;;15.90;8.43;;;21.10;99.90;;;;;;4944027;29;20176;-91
2021/08/01 06:19:43;;;;;;;17.17;8.50;;;21.50;99.90;;;;;;4942389;29;20641;-90
2021/08/01 06:22:15;;;;;;;15.02;8.13;;;21.70;99.90;;;;;;4942019;29;20598;-93
2021/08/01 06:25:04;;;;;;;14.05;7.88;;;21.40;99.90;;;;;;4934610;29;20258;-90
2021/08/01 06:27:30;;;;;;;14.20;8.82;;;21.40;99.90;;;;;;4920558;29;20195;-92
2021/08/01 06:30:07;;;;;;;11.95;8.48;;;21.70;99.90;;;;;;4918961;29;20192;-92
2021/08/01 06:32:33;;;;;;;16.23;9.07;;;;;;;;;;4936754;29;20286;-91
2021/08/01 06:35:17;;;;;;;20.27;9.35;;;;;;;;;;4937384;29;20291;-92
2021/08/01 06:37:46;;;;;;;14.40;7.95;;;22.00;99.90;;;;;;4943766;29;20658;-91
2021/08/01 06:40:23;;;;;;;12.85;7.82;;;20.40;99.90;;;;;;4942618;29;20211;-91
2021/08/01 06:43:05;;;;;;;;;;;;;;;;;;;;;
2021/08/01 06:45:42;;;;;;;12.38;7.70;;;22.30;99.90;;;;;;4943636;29;20187;-92
2021/08/01 06:48:37;;;;;;;13.00;7.68;;;22.40;99.90;;;;;;4941043;29;20171;-93
2021/08/01 06:54:20;;;;;;;14.65;7.95;;;;;;;;;;4866311;29;20198;-93
2021/08/01 06:56:56;;;;;;;16.65;7.88;;;22.60;99.90;;;;;;4875143;28;20624;-91
2021/08/01 06:59:57;;;;;;;13.38;7.63;;;22.70;99.90;;;;;;4953313;29;20186;-90
2021/08/01 07:05:35;;;;;;;15.85;8.27;;;22.80;99.90;;;;;;4920463;29;20238;-92
2021/08/01 07:08:45;;;;;;;15.77;7.35;;;22.80;99.90;;;;;;4957092;29;20201;-93
2021/08/01 07:15:04;;;;;;;15.20;8.98;;;23.30;99.90;;;;;;4935877;29;20223;-92
2021/08/01 07:17:30;;;;;;;11.82;6.95;;;;;;;;;;4901532;29;20203;-92
2021/08/01 07:19:56;;;;;;;12.25;7.32;;;;;;;;;;4907958;29;20219;-92
2021/08/01 07:23:00;;;;;;;12.60;7.43;;;23.50;99.90;;;;;;4909241;29;20300;-92
2021/08/01 07:26:18;;;;;;;;;;;;;;;;;;;;;
2021/08/01 07:28:35;;;;;;;8.90;7.15;;;23.70;99.90;;;;;;4914854;29;20188;-93
2021/08/01 07:31:04;;;;;;;10.70;6.93;;;24.00;99.90;;;;;;4908348;29;20356;-91
2021/08/01 07:33:30;;;;;;;14.35;8.50;;;24.20;99.90;;;;;;4910499;29;20185;-89
2021/08/01 07:35:57;;;;;;;11.02;7.30;;;;;;;;;;4912307;29;20182;-90
2021/08/01 07:38:24;;;;;;;14.48;6.32;;;;;;;;;;4928460;29;20191;-90
2021/08/01 07:40:52;;;;;;;9.93;6.10;;;24.50;99.90;;;;;;4948224;29;20183;-90
2021/08/01 07:43:23;;;;;;;8.40;6.10;;;24.70;99.90;;;;;;4952428;29;20179;-90
2021/08/01 07:45:50;;;;;;;8.98;6.50;;;;;;;;;;4929733;29;20179;-91
2021/08/01 07:48:16;;;;;;;10.40;7.13;;;;;;;;;;4945513;29;20235;-90
2021/08/01 07:51:07;;;;;;;;;;;;;;;;;;;;;
2021/08/01 07:53:34;;;;;;;9.00;6.40;;;;;;;;;;4947681;29;20197;-92
2021/08/01 07:56:02;;;;;;;10.15;6.57;;;25.10;99.90;;;;;;4950971;29;20220;-89
2021/08/01 07:58:30;;;;;;;8.55;6.10;;;24.90;99.90;;;;;;4943571;29;20645;-89
2021/08/01 08:00:58;;;;;;;10.43;6.00;;;;;;;;;;4947583;29;20183;-88
2021/08/01 08:03:24;;;;;;;10.75;6.15;;;;;;;;;;4948145;29;20230;-88
2021/08/01 08:05:51;;;;;;;12.07;5.95;;;;;;;;;;4946119;29;20418;-92
2021/08/01 08:08:22;;;;;;;9.02;5.70;;;25.10;99.90;;;;;;4947325;29;20271;-89
2021/08/01 08:10:48;;;;;;;14.50;5.88;;;;;;;;;;4928338;29;20172;-89
2021/08/01 08:13:14;;;;;;;7.32;6.07;;;;;;;;;;4954362;29;20203;-89
2021/08/01 08:15:40;;;;;;;9.80;6.00;;;;;;;;;;4930018;29;20298;-89
2021/08/01 08:18:06;;;;;;;9.82;6.28;;;;;;;;;;4945924;29;20206;-85
2021/08/01 08:20:35;;;;;;;14.38;7.65;;;;;;;;;;4946875;29;20179;-89
2021/08/01 08:23:00;;;;;;;10.65;6.50;;;24.70;99.90;;;;;;4954869;29;20654;-89
2021/08/01 08:25:26;;;;;;;10.07;6.32;;;24.70;99.90;;;;;;4958029;28;20218;-88
2021/08/01 08:27:52;;;;;;;9.50;6.32;;;24.70;99.90;;;;;;4956511;28;20218;-89
2021/08/01 08:30:21;;;;;;;9.23;6.00;;;24.70;99.90;;;;;;4956229;29;20264;-92
2021/08/01 08:32:47;;;;;;;10.20;6.35;;;;;;;;;;4954952;29;20250;-87
2021/08/01 08:35:13;;;;;;;8.13;5.65;;;24.70;99.90;;;;;;4955435;29;20659;-91
2021/08/01 08:37:46;;;;;;;8.32;5.60;;;25.00;99.90;;;;;;4954917;28;20183;-92
2021/08/01 08:40:38;;;;;;;8.95;6.43;;;26.30;99.90;;;;;;4958279;29;20187;-92
2021/08/01 08:43:40;;;;;;;11.15;5.82;;;25.30;99.90;;;;;;4959406;29;20183;-94
2021/08/01 08:46:35;;;;;;;8.73;6.13;;;25.00;99.90;;;;;;4950166;29;20227;-94
2021/08/01 08:49:07;;;;;;;10.88;6.40;;;25.00;99.90;;;;;;4931380;29;20202;-91
2021/08/01 08:51:37;;;;;;;8.80;6.15;;;25.10;99.90;;;;;;4952137;28;20199;-90
2021/08/01 08:54:10;;;;;;;7.00;6.00;;;25.10;99.90;;;;;;4931390;29;20647;-91
2021/08/01 08:56:37;;;;;;;7.95;5.78;;;25.10;99.90;;;;;;4952721;29;20175;-91
2021/08/01 08:59:12;;;;;;;6.28;5.68;;;25.10;99.90;;;;;;4926515;29;20201;-91
2021/08/01 09:01:49;;;;;;;9.50;6.90;;;25.10;99.90;;;;;;4952619;29;20246;-92
2021/08/01 09:04:21;;;;;;;14.32;7.20;;;;;;;;;;4920558;29;20252;-92
2021/08/01 09:06:47;;;;;;;10.88;5.70;;;;;;;;;;4947644;29;20210;-90
2021/08/01 09:09:13;;;;;;;7.53;5.93;;;25.20;99.90;;;;;;4942757;29;20230;-89
2021/08/01 09:11:40;;;;;;;8.43;5.65;;;25.30;99.90;;;;;;4909928;29;20213;-92
2021/08/01 09:14:18;;;;;;;6.43;5.45;;;25.30;99.90;;;;;;4923376;29;20279;-91
2021/08/01 09:16:48;;;;;;;8.25;5.45;;;25.30;99.90;;;;;;4943894;29;20259;-91
2021/08/01 09:19:28;;;;;;;7.07;5.88;;;25.30;99.90;;;;;;4941356;29;20543;-90
2021/08/01 09:22:10;;;;;;;10.02;5.80;;;25.60;99.90;;;;;;4943237;29;20183;-91
2021/08/01 09:24:36;;;;;;;6.75;5.82;;;;;;;;;;4946377;29;20271;-90
2021/08/01 09:27:03;;;;;;;10.15;6.00;;;25.70;99.90;;;;;;4943759;29;20586;-89
2021/08/01 09:29:30;;;;;;;9.57;5.63;;;25.70;99.90;;;;;;4922736;29;20271;-90
2021/08/01 09:31:59;;;;;;;7.30;5.30;;;25.70;99.90;;;;;;4954222;29;20286;-90
2021/08/01 09:34:29;;;;;;;8.35;5.65;;;25.70;99.90;;;;;;4955054;29;20269;-94
2021/08/01 09:37:00;;;;;;;9.48;6.10;;;25.70;99.90;;;;;;4954748;29;20179;-91
2021/08/01 09:39:28;;;;;;;10.98;5.85;;;25.70;99.90;;;;;;4955144;29;20179;-92
2021/08/01 09:42:02;;;;;;;12.13;6.45;;;25.60;99.90;;;;;;4954015;29;20206;-90
2021/08/01 09:44:28;;;;;;;8.27;5.85;;;25.50;99.90;;;;;;4945862;29;20207;-91
2021/08/01 09:46:58;;;;;;;6.95;6.25;;;;;;;;;;4948849;29;20171;-91
2021/08/01 09:49:31;;;;;;;7.53;6.10;;;25.30;99.90;;;;;;4948238;29;20634;-89
2021/08/01 09:52:04;;;;;;;7.38;6.30;;;25.40;99.90;;;;;;4915920;29;20208;-89
2021/08/01 09:54:49;;;;;;;7.88;5.72;;;25.10;99.90;;;;;;4916043;29;20192;-89
2021/08/01 09:57:25;;;;;;;7.35;5.80;;;25.10;99.90;;;;;;4916047;29;20725;-92
2021/08/01 10:00:09;;;;;;;12.55;6.10;;;25.30;99.90;;;;;;4900184;29;20192;-91
2021/08/01 10:02:38;;;;;;;7.88;6.53;;;25.10;99.90;;;;;;4920305;29;20206;-90
2021/08/01 10:05:26;;;;;;;9.25;6.82;;;25.20;99.90;;;;;;4954951;29;20231;-90
2021/08/01 10:07:52;;;;;;;7.72;6.50;;;;;;;;;;4969486;28;20180;-93
2021/08/01 10:10:28;;;;;;;10.43;6.45;;;25.10;99.90;;;;;;4978426;28;20188;-90
2021/08/01 10:12:57;;;;;;;9.40;7.15;;;25.00;99.90;;;;;;4977893;28;20210;-91
2021/08/01 10:15:25;;;;;;;10.25;7.00;;;25.00;99.90;;;;;;4978447;28;20181;-91
2021/08/01 10:17:52;;;;;;;13.27;8.32;;;24.90;99.90;;;;;;4978813;28;20173;-94
2021/08/01 10:20:18;;;;;;;17.33;7.07;;;25.10;99.90;;;;;;4977898;28;20190;-89
2021/08/01 10:22:48;;;;;;;13.02;7.10;;;24.90;99.90;;;;;;4964840;28;20189;-91
2021/08/01 10:25:30;;;;;;;10.32;6.70;;;24.80;99.90;;;;;;4954251;29;20175;-91
2021/08/01 10:28:00;;;;;;;9.10;6.95;;;24.90;99.90;;;;;;4955301;28;20179;-92
2021/08/01 10:30:27;;;;;;;9.23;7.25;;;24.90;99.90;;;;;;4948798;29;20771;-91
2021/08/01 10:33:03;;;;;;;9.50;6.85;;;25.00;99.90;;;;;;4955067;28;20622;-92
2021/08/01 10:35:29;;;;;;;12.15;8.40;;;;;;;;;;4954005;29;20185;-96
2021/08/01 10:37:59;;;;;;;13.23;7.72;;;25.20;99.90;;;;;;4951642;29;20182;-95
2021/08/01 10:40:26;;;;;;;10.75;7.60;;;25.30;99.90;;;;;;4938063;29;20199;-90
2021/08/01 10:46:01;;;;;;;18.02;6.90;;;25.70;99.90;;;;;;4923687;29;20317;-95
2021/08/01 10:48:31;;;;;;;8.48;6.25;;;25.80;99.90;;;;;;4942226;29;20198;-93
2021/08/01 10:50:57;;;;;;;19.95;7.35;;;;;;;;;;4948508;29;20183;-95
2021/08/01 10:53:25;;;;;;;12.75;6.90;;;26.50;99.90;;;;;;4951875;29;20204;-88
2021/08/01 10:56:12;;;;;;;10.90;6.90;;;26.60;99.90;;;;;;4952570;28;20187;-92
2021/08/01 10:58:38;;;;;;;10.25;6.65;;;;;;;;;;4954460;29;20206;-94
2021/08/01 11:01:06;;;;;;;7.30;6.30;;;26.40;99.90;;;;;;4956291;28;20186;-91
2021/08/01 11:03:37;;;;;;;12.15;6.70;;;26.40;99.90;;;;;;4958045;29;20175;-89
2021/08/01 11:06:22;;;;;;;10.27;6.97;;;26.40;99.90;;;;;;4976859;28;20753;-91
2021/08/01 11:09:09;;;;;;;13.48;6.63;;;25.50;99.90;;;;;;4961504;28;20227;-91
2021/08/01 11:11:35;;;;;;;10.48;6.45;;;;;;;;;;4966955;28;20236;-92
2021/08/01 11:14:03;;;;;;;12.15;6.47;;;26.80;99.90;;;;;;4949568;28;20175;-92
2021/08/01 11:16:32;;;;;;;8.90;6.22;;;27.10;99.90;;;;;;4952711;28;20646;-91
2021/08/01 11:19:00;;;;;;;10.00;5.55;;;;;;;;;;4948751;28;20265;-90
2021/08/01 11:21:37;;;;;;;11.32;5.60;;;27.00;99.90;;;;;;4941396;29;20191;-92
2021/08/01 11:24:10;;;;;;;11.20;5.65;;;27.00;99.90;;;;;;4941325;29;20179;-89
2021/08/01 11:26:37;;;;;;;8.05;5.68;;;27.00;99.90;;;;;;4940974;29;20186;-91
2021/08/01 11:29:09;;;;;;;7.38;5.32;;;27.00;99.90;;;;;;4940618;29;20226;-90
2021/08/01 11:31:37;;;;;;;7.55;5.45;;;26.90;99.90;;;;;;4940898;29;20219;-90
2021/08/01 11:34:16;;;;;;;10.05;5.70;;;27.00;99.90;;;;;;4958496;29;20214;-91
2021/08/01 11:36:42;;;;;;;9.82;5.65;;;;;;;;;;4941246;29;20241;-92
2021/08/01 11:39:08;;;;;;;10.55;5.10;;;;;;;;;;4940911;29;20213;-91
2021/08/01 11:41:38;;;;;;;7.13;5.93;;;26.80;99.90;;;;;;4963760;28;20233;-92
2021/08/01 11:44:14;;;;;;;;;;;;;;;;;;;;;
2021/08/01 11:46:57;;;;;;;7.78;5.90;;;26.90;99.90;;;;;;4960311;28;20519;-94
2021/08/01 11:49:29;;;;;;;10.20;6.03;;;26.80;99.90;;;;;;4953599;28;20182;-93
2021/08/01 11:51:58;;;;;;;9.77;5.63;;;26.70;99.90;;;;;;4941075;29;20215;-92
2021/08/01 11:54:27;;;;;;;6.95;5.88;;;27.20;99.90;;;;;;4943774;28;20310;-90
2021/08/01 11:57:06;;;;;;;9.48;6.32;;;26.70;99.90;;;;;;4957088;28;20206;-93
2021/08/01 11:59:32;;;;;;;7.28;5.43;;;26.50;99.90;;;;;;4949325;28;20175;-92
2021/08/01 12:01:59;;;;;;;7.05;5.47;;;;;;;;;;4971065;28;20187;-92
2021/08/01 12:04:28;;;;;;;8.35;5.45;;;26.40;99.90;;;;;;4937856;29;20271;-94
2021/08/01 12:06:55;;;;;;;8.20;5.47;;;26.60;99.90;;;;;;4927557;29;20272;-90
2021/08/01 12:09:26;;;;;;;7.38;5.45;;;26.50;99.90;;;;;;4947687;28;20301;-92
2021/08/01 12:11:56;;;;;;;9.32;6.75;;;26.60;99.90;;;;;;4944094;28;20233;-95
2021/08/01 12:14:24;;;;;;;7.65;5.30;;;26.70;99.90;;;;;;4955889;28;20214;-96
2021/08/01 12:17:00;;;;;;;8.00;6.13;;;26.70;99.90;;;;;;4952194;29;20176;-94
2021/08/01 12:19:37;;;;;;;10.25;5.75;;;26.40;99.90;;;;;;4950089;29;20184;-92
2021/08/01 12:22:20;;;;;;;25.73;7.70;;;26.30;99.90;;;;;;4950904;29;20183;-91
2021/08/01 12:24:57;;;;;;;19.98;6.95;;;26.60;99.90;;;;;;4946379;29;20517;-91
2021/08/01 12:27:34;;;;;;;14.20;7.18;;;25.20;99.90;;;;;;4945546;29;20680;-93
2021/08/01 12:30:13;;;;;;;10.57;7.10;;;24.60;99.90;;;;;;4942955;29;20168;-95
2021/08/01 12:32:46;;;;;;;12.45;7.50;;;21.20;99.90;;;;;;4939164;29;20203;-94
2021/08/01 12:35:12;;;;;;;11.23;6.65;;;;;;;;;;4935045;29;20600;-92
2021/08/01 12:37:56;;;;;;;10.20;6.57;;;23.70;99.90;;;;;;4936581;29;20191;-93
2021/08/01 12:40:38;;;;;;;10.80;6.85;;;23.70;99.90;;;;;;4940877;29;20192;-93
2021/08/01 12:43:13;;;;;;;12.05;6.10;;;23.60;99.90;;;;;;4942746;29;20226;-92
2021/08/01 12:45:41;;;;;;;11.45;5.78;;;23.30;99.90;;;;;;4942251;29;20659;-93
2021/08/01 12:48:21;;;;;;;7.90;5.85;;;23.20;99.90;;;;;;4943576;29;20203;-96
2021/08/01 12:50:50;;;;;;;7.05;5.18;;;23.00;99.90;;;;;;4942193;29;20231;-93
2021/08/01 12:53:19;;;;;;;7.32;5.63;;;22.90;99.90;;;;;;4936549;29;20203;-92
2021/08/01 12:58:46;;;;;;;8.90;5.93;;;23.00;99.90;;;;;;4944133;28;20184;-95
2021/08/01 13:01:47;;;;;;;5.95;4.53;;;22.70;99.90;;;;;;4933542;29;20204;-96
2021/08/01 13:04:15;;;;;;;6.20;3.65;;;;;;;;;;4909094;28;20247;-94
2021/08/01 13:06:45;;;;;;;4.68;3.63;;;23.10;99.90;;;;;;4950705;29;20179;-93
2021/08/01 13:09:21;;;;;;;11.70;3.45;;;23.70;99.90;;;;;;4964736;28;20191;-95
2021/08/01 13:11:47;;;;;;;9.60;3.22;;;;;;;;;;4945152;28;20198;-96
2021/08/01 13:14:13;;;;;;;5.68;3.30;;;;;;;;;;4953725;28;20187;-94
2021/08/01 13:16:54;;;;;;;6.55;3.90;;;24.00;99.90;;;;;;4946757;28;20171;-93
2021/08/01 13:23:00;;;;;;;;;;;;;;;;;;;;;
2021/08/01 13:25:43;;;;;;;7.50;3.72;;;24.20;99.90;;;;;;4962734;29;20298;-94
2021/08/01 13:28:10;;;;;;;6.35;4.30;;;;;;;;;;4942587;29;20195;-96
2021/08/01 13:31:11;;;;;;;5.93;3.78;;;24.70;99.90;;;;;;4965648;28;20198;-95
2021/08/01 13:33:59;;;;;;;6.43;3.67;;;25.90;99.90;;;;;;4925215;28;20206;-92
2021/08/01 13:36:41;;;;;;;8.18;4.07;;;25.40;99.90;;;;;;4958620;28;20650;-96
2021/08/01 13:39:10;;;;;;;6.95;3.63;;;25.40;99.90;;;;;;4960858;28;20209;-96
2021/08/01 13:41:39;;;;;;;5.40;3.85;;;24.00;99.90;;;;;;4966208;28;20270;-95
2021/08/01 13:44:17;;;;;;;4.35;3.95;;;25.50;99.90;;;;;;4960349;28;20174;-96